createdAt,value
2022-12-27T00:00:53.324Z,1.16
2022-12-27T00:03:20.660Z,1.13
2022-12-27T00:05:48.508Z,1.08
2022-12-27T00:08:15.955Z,1.06
2022-12-27T00:10:42.807Z,1.02
2022-12-27T00:13:09.598Z,0.99
2022-12-27T00:15:37.025Z,0.98
2022-12-27T00:18:03.913Z,0.94
2022-12-27T00:20:30.715Z,0.91
2022-12-27T00:23:01.273Z,0.88
2022-12-27T00:25:28.177Z,0.84
2022-12-27T00:27:55.414Z,0.82
2022-12-27T00:30:22.232Z,0.79
2022-12-27T00:32:49.022Z,0.75
2022-12-27T00:35:16.067Z,0.72
2022-12-27T00:37:42.829Z,0.72
2022-12-27T00:40:10.969Z,0.70
2022-12-27T00:42:37.798Z,0.72
2022-12-27T00:45:05.943Z,0.69
2022-12-27T00:47:32.800Z,0.69
2022-12-27T00:49:59.591Z,0.64
2022-12-27T00:52:26.503Z,0.64
2022-12-27T00:54:53.304Z,0.61
2022-12-27T00:57:20.057Z,0.57
2022-12-27T00:59:47.917Z,0.54
2022-12-27T01:02:14.843Z,0.48
2022-12-27T01:04:41.842Z,0.48
2022-12-27T01:07:08.669Z,0.44
2022-12-27T01:09:35.564Z,0.44
2022-12-27T01:12:02.541Z,0.43
2022-12-27T01:14:29.348Z,0.43
2022-12-27T01:16:56.234Z,0.39
2022-12-27T01:19:23.012Z,0.39
2022-12-27T01:21:49.856Z,0.41
2022-12-27T01:24:16.956Z,0.38
2022-12-27T01:26:43.765Z,0.39
2022-12-27T01:29:13.133Z,0.38
2022-12-27T01:31:40.353Z,0.36
2022-12-27T01:34:07.236Z,0.36
2022-12-27T01:36:34.421Z,0.34
2022-12-27T01:39:01.536Z,0.32
2022-12-27T01:41:55.398Z,0.29
2022-12-27T01:44:40.960Z,0.29
2022-12-27T01:47:35.204Z,0.26
2022-12-27T01:50:39.656Z,0.29
2022-12-27T01:53:21.144Z,0.26
2022-12-27T01:56:19.655Z,0.21
2022-12-27T01:59:01.495Z,0.18
2022-12-27T02:01:36.452Z,0.15
2022-12-27T02:04:15.302Z,0.14
2022-12-27T02:06:42.948Z,0.13
2022-12-27T02:09:14.799Z,0.12
2022-12-27T02:11:53.079Z,0.10
2022-12-27T02:14:35.811Z,0.11
2022-12-27T02:17:08.862Z,0.10
2022-12-27T02:19:41.681Z,0.10
2022-12-27T02:22:53.230Z,0.09
2022-12-27T02:25:35.092Z,0.10
2022-12-27T02:28:29.781Z,0.10
2022-12-27T02:31:07.352Z,0.12
2022-12-27T02:33:44.015Z,0.15
2022-12-27T02:36:18.289Z,0.13
2022-12-27T02:38:51.646Z,0.17
2022-12-27T02:41:38.390Z,0.16
2022-12-27T02:44:23.717Z,0.18
2022-12-27T02:47:11.149Z,0.21
2022-12-27T02:50:02.546Z,0.19
2022-12-27T02:53:07.240Z,0.17
2022-12-27T02:56:09.011Z,0.19
2022-12-27T02:59:08.012Z,0.23
2022-12-27T03:02:37.687Z,0.24
2022-12-27T03:06:08.902Z,0.30
2022-12-27T03:08:49.933Z,0.31
2022-12-27T03:11:35.896Z,0.35
2022-12-27T03:14:46.844Z,0.33
2022-12-27T03:17:32.929Z,0.37
2022-12-27T03:20:26.164Z,0.36
2022-12-27T03:23:14.334Z,0.35
2022-12-27T03:25:43.856Z,0.36
2022-12-27T03:28:37.645Z,0.35
2022-12-27T03:31:31.387Z,0.35
2022-12-27T03:34:24.793Z,0.32
2022-12-27T03:37:12.953Z,0.31
2022-12-27T03:39:50.532Z,0.30
2022-12-27T03:42:43.743Z,0.29
2022-12-27T03:45:11.354Z,0.27
2022-12-27T03:47:49.439Z,0.29
2022-12-27T03:50:45.157Z,0.27
2022-12-27T03:53:21.301Z,0.26
2022-12-27T03:55:48.943Z,0.26
2022-12-27T03:58:16.345Z,0.24
2022-12-27T04:00:43.163Z,0.23
2022-12-27T04:03:09.978Z,0.18
2022-12-27T04:05:36.758Z,0.19
2022-12-27T04:08:22.091Z,0.17
2022-12-27T04:11:07.675Z,0.15
2022-12-27T04:13:53.226Z,0.13
2022-12-27T04:16:39.056Z,0.08
2022-12-27T04:19:24.550Z,0.05
2022-12-27T04:22:09.661Z,0.00
2022-12-27T04:24:55.353Z,-0.04
2022-12-27T04:27:40.736Z,0.00
2022-12-27T04:30:27.342Z,0.03
2022-12-27T04:33:12.606Z,0.08
2022-12-27T04:35:39.459Z,0.16
2022-12-27T04:38:06.282Z,0.24
2022-12-27T04:40:51.531Z,0.30
2022-12-27T04:43:37.019Z,0.38
2022-12-27T04:46:22.603Z,0.42
2022-12-27T04:49:07.837Z,0.47
2022-12-27T04:51:53.235Z,0.50
2022-12-27T04:54:40.767Z,0.51
2022-12-27T04:57:07.746Z,0.56
2022-12-27T04:59:53.012Z,0.57
2022-12-27T05:02:20.362Z,0.61
2022-12-27T05:04:48.856Z,0.65
2022-12-27T05:07:34.752Z,0.68
2022-12-27T05:10:23.576Z,0.70
2022-12-27T05:13:08.882Z,0.73
2022-12-27T05:15:35.681Z,0.74
2022-12-27T05:18:02.777Z,0.76
2022-12-27T05:20:29.813Z,0.77
2022-12-27T05:23:15.124Z,0.78
2022-12-27T05:25:44.165Z,0.78
2022-12-27T05:28:12.899Z,0.80
2022-12-27T05:30:43.765Z,0.81
2022-12-27T05:33:11.156Z,0.81
2022-12-27T05:35:38.897Z,0.84
2022-12-27T05:38:06.354Z,0.88
2022-12-27T05:40:33.615Z,0.86
2022-12-27T05:43:02.317Z,0.87
2022-12-27T05:45:30.298Z,0.93
2022-12-27T05:47:58.949Z,0.93
2022-12-27T05:50:26.547Z,0.97
2022-12-27T05:52:53.344Z,0.97
2022-12-27T05:55:20.148Z,0.99
2022-12-27T05:57:46.936Z,0.99
2022-12-27T06:00:14.715Z,0.99
2022-12-27T06:02:42.847Z,0.97
2022-12-27T06:05:10.746Z,0.95
2022-12-27T06:07:39.454Z,0.92
2022-12-27T06:10:08.493Z,0.93
2022-12-27T06:12:35.876Z,0.91
2022-12-27T06:15:04.396Z,0.94
2022-12-27T06:17:31.219Z,0.97
2022-12-27T06:19:58.161Z,1.00
2022-12-27T06:22:25.741Z,0.99
2022-12-27T06:24:52.630Z,1.03
2022-12-27T06:27:19.409Z,1.10
2022-12-27T06:29:46.607Z,1.15
2022-12-27T06:32:13.641Z,1.19
2022-12-27T06:34:40.473Z,1.22
2022-12-27T06:37:07.281Z,1.30
2022-12-27T06:39:34.065Z,1.33
2022-12-27T06:42:00.992Z,1.39
2022-12-27T06:44:27.861Z,1.46
2022-12-27T06:46:54.654Z,1.48
2022-12-27T06:49:21.461Z,1.53
2022-12-27T06:51:52.564Z,1.56
2022-12-27T06:54:22.683Z,1.59
2022-12-27T06:56:49.545Z,1.63
2022-12-27T06:59:16.346Z,1.63
2022-12-27T07:01:43.373Z,1.67
2022-12-27T07:04:10.938Z,1.70
2022-12-27T07:06:38.376Z,1.70
2022-12-27T07:09:06.392Z,1.75
2022-12-27T07:11:35.448Z,1.78
2022-12-27T07:14:03.536Z,1.82
2022-12-27T07:16:31.178Z,1.83
2022-12-27T07:18:59.653Z,1.87
2022-12-27T07:21:29.610Z,1.90
2022-12-27T07:23:57.276Z,1.94
2022-12-27T07:26:28.717Z,1.98
2022-12-27T07:28:58.764Z,2.03
2022-12-27T07:31:29.791Z,2.06
2022-12-27T07:33:58.131Z,2.12
2022-12-27T07:36:28.960Z,2.12
2022-12-27T07:38:56.052Z,2.14
2022-12-27T07:41:23.315Z,2.13
2022-12-27T07:43:50.210Z,2.15
2022-12-27T07:46:20.705Z,2.14
2022-12-27T07:48:48.190Z,2.13
2022-12-27T07:51:17.902Z,2.14
2022-12-27T07:53:45.132Z,2.14
2022-12-27T07:56:26.092Z,2.14
2022-12-27T07:58:56.708Z,2.17
2022-12-27T08:01:26.463Z,2.22
2022-12-27T08:03:54.059Z,2.25
2022-12-27T08:06:32.091Z,2.27
2022-12-27T08:09:03.956Z,2.27
2022-12-27T08:11:31.404Z,2.29
2022-12-27T08:13:58.195Z,2.32
2022-12-27T08:16:26.548Z,2.34
2022-12-27T08:18:53.826Z,2.40
2022-12-27T08:21:20.769Z,2.42
2022-12-27T08:23:47.677Z,2.43
2022-12-27T08:26:14.568Z,2.45
2022-12-27T08:28:41.728Z,2.44
2022-12-27T08:31:11.314Z,2.49
2022-12-27T08:33:39.496Z,2.51
2022-12-27T08:36:44.702Z,2.52
2022-12-27T08:38:56.121Z,2.58
2022-12-27T08:41:23.662Z,2.59
2022-12-27T08:43:50.815Z,2.58
2022-12-27T08:46:19.879Z,2.63
2022-12-27T08:48:49.018Z,2.64
2022-12-27T08:51:23.440Z,2.70
2022-12-27T08:53:57.547Z,2.75
2022-12-27T08:56:25.088Z,2.79
2022-12-27T08:58:52.149Z,2.81
2022-12-27T09:01:19.136Z,2.84
2022-12-27T09:03:46.038Z,2.88
2022-12-27T09:06:20.508Z,2.92
2022-12-27T09:08:49.185Z,2.95
2022-12-27T09:11:21.621Z,2.97
2022-12-27T09:13:49.092Z,3.04
2022-12-27T09:16:24.358Z,3.05
2022-12-27T09:18:53.830Z,3.09
2022-12-27T09:21:23.597Z,3.14
2022-12-27T09:23:52.212Z,3.22
2022-12-27T09:26:26.571Z,3.26
2022-12-27T09:28:54.427Z,3.32
2022-12-27T09:31:22.900Z,3.39
2022-12-27T09:33:50.043Z,3.43
2022-12-27T09:36:20.730Z,3.48
2022-12-27T09:38:48.755Z,3.57
2022-12-27T09:42:45.853Z,3.63
2022-12-27T09:44:46.480Z,3.70
2022-12-27T09:47:22.543Z,3.74
2022-12-27T09:49:54.681Z,3.81
2022-12-27T09:52:35.586Z,3.85
2022-12-27T09:55:16.500Z,3.88
2022-12-27T09:57:45.666Z,3.92
2022-12-27T10:00:34.262Z,3.96
2022-12-27T10:03:06.217Z,3.98
2022-12-27T10:05:37.358Z,4.02
2022-12-27T10:08:55.061Z,4.06
2022-12-27T10:11:40.221Z,4.09
2022-12-27T10:14:13.131Z,4.13
2022-12-27T10:17:07.856Z,4.16
2022-12-27T10:19:46.435Z,4.18
2022-12-27T10:22:50.006Z,4.24
2022-12-27T10:25:22.136Z,4.26
2022-12-27T10:27:51.595Z,4.31
2022-12-27T10:30:21.107Z,4.37
2022-12-27T10:32:49.032Z,4.43
2022-12-27T10:35:19.415Z,4.44
2022-12-27T10:37:49.086Z,4.49
2022-12-27T10:40:27.674Z,4.52
2022-12-27T10:43:21.801Z,4.54
2022-12-27T10:45:49.212Z,4.63
2022-12-27T10:48:28.892Z,4.63
2022-12-27T10:51:07.254Z,4.67
2022-12-27T10:53:36.572Z,4.72
2022-12-27T10:56:28.035Z,4.75
2022-12-27T10:59:12.021Z,4.79
2022-12-27T11:01:39.469Z,4.84
2022-12-27T11:04:21.352Z,4.86
2022-12-27T11:07:08.218Z,4.84
2022-12-27T11:09:46.450Z,4.91
2022-12-27T11:12:24.381Z,4.94
2022-12-27T11:15:20.326Z,4.97
2022-12-27T11:17:51.041Z,4.99
2022-12-27T11:20:22.683Z,5.00
2022-12-27T11:22:57.113Z,5.06
2022-12-27T11:25:27.842Z,5.07
2022-12-27T11:28:14.485Z,5.06
2022-12-27T11:30:42.057Z,5.12
2022-12-27T11:33:37.608Z,5.11
2022-12-27T11:36:06.679Z,5.19
2022-12-27T11:38:37.152Z,5.19
2022-12-27T11:41:26.088Z,5.20
2022-12-27T11:44:00.809Z,5.28
2022-12-27T11:46:57.075Z,5.27
2022-12-27T11:49:36.771Z,5.34
2022-12-27T11:52:03.685Z,5.34
2022-12-27T11:55:12.762Z,5.37
2022-12-27T11:58:13.674Z,5.39
2022-12-27T12:01:28.780Z,5.40
2022-12-27T12:04:29.649Z,5.42
2022-12-27T12:07:21.259Z,5.46
2022-12-27T12:10:39.009Z,5.45
2022-12-27T12:13:17.674Z,5.49
2022-12-27T12:16:15.844Z,5.52
2022-12-27T12:19:01.471Z,5.54
2022-12-27T12:22:30.195Z,5.60
2022-12-27T12:26:06.701Z,5.63
2022-12-27T12:29:30.430Z,5.69
2022-12-27T12:32:51.876Z,5.76
2022-12-27T12:36:12.394Z,5.81
2022-12-27T12:38:52.972Z,5.83
2022-12-27T12:41:31.785Z,5.89
2022-12-27T12:44:37.970Z,5.92
2022-12-27T12:47:44.810Z,5.97
2022-12-27T12:50:57.962Z,6.00
2022-12-27T12:53:54.687Z,6.03
2022-12-27T12:56:50.111Z,6.06
2022-12-27T13:00:09.871Z,6.07
2022-12-27T13:03:18.224Z,6.10
2022-12-27T13:06:18.342Z,6.16
2022-12-27T13:08:57.790Z,6.19
2022-12-27T13:11:43.825Z,6.19
2022-12-27T13:15:06.996Z,6.27
2022-12-27T13:17:36.916Z,6.32
2022-12-27T13:20:22.276Z,6.34
2022-12-27T13:23:07.647Z,6.40
2022-12-27T13:25:48.079Z,6.41
2022-12-27T13:29:07.161Z,6.41
2022-12-27T13:32:04.250Z,6.49
2022-12-27T13:35:07.443Z,6.54
2022-12-27T13:38:04.130Z,6.61
2022-12-27T13:41:14.627Z,6.65
2022-12-27T13:44:19.453Z,6.69
2022-12-27T13:47:16.400Z,6.70
2022-12-27T13:50:18.692Z,6.78
2022-12-27T13:53:33.285Z,6.86
2022-12-27T13:56:55.175Z,6.89
2022-12-27T14:00:02.941Z,6.99
2022-12-27T14:02:33.212Z,7.02
2022-12-27T14:05:05.858Z,7.06
2022-12-27T14:08:01.908Z,7.14
2022-12-27T14:10:40.926Z,7.21
2022-12-27T14:13:10.246Z,7.29
2022-12-27T14:15:43.036Z,7.31
2022-12-27T14:18:12.784Z,7.37
2022-12-27T14:20:56.923Z,7.38
2022-12-27T14:23:44.557Z,7.43
2022-12-27T14:26:36.180Z,7.48
2022-12-27T14:29:27.536Z,7.51
2022-12-27T14:32:34.508Z,7.53
2022-12-27T14:35:28.101Z,7.53
2022-12-27T14:38:45.864Z,7.49
2022-12-27T14:41:18.692Z,7.54
2022-12-27T14:44:45.285Z,7.53
2022-12-27T14:47:29.166Z,7.54
2022-12-27T14:50:19.717Z,7.58
2022-12-27T14:53:09.277Z,7.60
2022-12-27T14:56:12.824Z,7.61
2022-12-27T14:59:13.560Z,7.62
2022-12-27T15:02:02.034Z,7.60
2022-12-27T15:04:53.459Z,7.62
2022-12-27T15:07:34.328Z,7.60
2022-12-27T15:10:31.776Z,7.62
2022-12-27T15:13:32.434Z,7.61
2022-12-27T15:16:28.075Z,7.65
2022-12-27T15:19:23.786Z,7.64
2022-12-27T15:22:15.870Z,7.63
2022-12-27T15:25:46.532Z,7.64
2022-12-27T15:28:58.013Z,7.61
2022-12-27T15:31:43.897Z,7.61
2022-12-27T15:34:43.493Z,7.60
2022-12-27T15:37:47.780Z,7.60
2022-12-27T15:40:32.866Z,7.60
2022-12-27T15:43:37.417Z,7.60
2022-12-27T15:46:28.659Z,7.57
2022-12-27T15:49:28.245Z,7.57
2022-12-27T15:52:16.814Z,7.56
2022-12-27T15:54:58.710Z,7.58
2022-12-27T15:58:11.857Z,7.54
2022-12-27T16:00:39.612Z,7.58
2022-12-27T16:03:33.975Z,7.56
2022-12-27T16:06:02.095Z,7.60
2022-12-27T16:08:39.927Z,7.61
2022-12-27T16:11:11.054Z,7.59
2022-12-27T16:13:49.079Z,7.63
2022-12-27T16:16:28.766Z,7.60
2022-12-27T16:19:40.541Z,7.65
2022-12-27T16:22:38.344Z,7.64
2022-12-27T16:25:31.801Z,7.59
2022-12-27T16:28:16.705Z,7.61
2022-12-27T16:30:53.177Z,7.62
2022-12-27T16:33:26.444Z,7.65
2022-12-27T16:36:11.889Z,7.62
2022-12-27T16:39:11.534Z,7.64
2022-12-27T16:41:50.311Z,7.63
2022-12-27T16:44:36.246Z,7.63
2022-12-27T16:47:39.471Z,7.64
2022-12-27T16:50:29.259Z,7.62
2022-12-27T16:53:49.078Z,7.63
2022-12-27T16:56:24.337Z,7.58
2022-12-27T16:58:52.182Z,7.58
2022-12-27T17:01:18.995Z,7.55
2022-12-27T17:03:49.279Z,7.52
2022-12-27T17:06:33.144Z,7.49
2022-12-27T17:09:09.663Z,7.44
2022-12-27T17:11:51.590Z,7.42
2022-12-27T17:14:34.170Z,7.40
2022-12-27T17:17:09.364Z,7.38
2022-12-27T17:20:08.225Z,7.38
2022-12-27T17:22:39.632Z,7.36
2022-12-27T17:25:15.172Z,7.37
2022-12-27T17:28:00.228Z,7.31
2022-12-27T17:30:44.510Z,7.31
2022-12-27T17:33:53.718Z,7.31
2022-12-27T17:36:34.718Z,7.33
2022-12-27T17:39:38.950Z,7.27
2022-12-27T17:43:01.472Z,7.21
2022-12-27T17:46:13.377Z,7.28
2022-12-27T17:48:40.383Z,7.26
2022-12-27T17:51:15.252Z,7.23
2022-12-27T17:54:13.204Z,7.23
2022-12-27T17:57:14.689Z,7.20
2022-12-27T17:59:49.201Z,7.18
2022-12-27T18:02:36.731Z,7.20
2022-12-27T18:05:12.504Z,7.21
2022-12-27T18:07:39.979Z,7.19
2022-12-27T18:10:24.477Z,7.16
2022-12-27T18:13:05.202Z,7.17
2022-12-27T18:15:36.470Z,7.17
2022-12-27T18:18:07.673Z,7.16
2022-12-27T18:20:38.468Z,7.14
2022-12-27T18:23:06.276Z,7.20
2022-12-27T18:25:49.229Z,7.17
2022-12-27T18:28:33.900Z,7.14
2022-12-27T18:31:13.260Z,7.17
2022-12-27T18:33:40.075Z,7.19
2022-12-27T18:36:15.805Z,7.21
2022-12-27T18:38:47.073Z,7.24
2022-12-27T18:41:19.819Z,7.21
2022-12-27T18:43:50.392Z,7.24
2022-12-27T18:46:29.426Z,7.27
2022-12-27T18:48:57.050Z,7.23
2022-12-27T18:51:38.659Z,7.23
2022-12-27T18:54:30.010Z,7.24
2022-12-27T18:56:59.599Z,7.28
2022-12-27T18:59:29.291Z,7.26
2022-12-27T19:02:00.282Z,7.27
2022-12-27T19:04:33.051Z,7.30
2022-12-27T19:07:14.671Z,7.32
2022-12-27T19:09:59.986Z,7.26
2022-12-27T19:12:38.635Z,7.28
2022-12-27T19:15:20.631Z,7.30
2022-12-27T19:17:50.825Z,7.29
2022-12-27T19:20:34.971Z,7.21
2022-12-27T19:23:39.416Z,7.31
2022-12-27T19:26:32.104Z,7.32
2022-12-27T19:29:06.816Z,7.32
2022-12-27T19:31:35.524Z,7.32
2022-12-27T19:34:09.551Z,7.31
2022-12-27T19:36:42.971Z,7.37
2022-12-27T19:39:22.108Z,7.35
2022-12-27T19:41:49.800Z,7.39
2022-12-27T19:44:17.109Z,7.40
2022-12-27T19:46:43.937Z,7.39
2022-12-27T19:51:58.855Z,7.43
2022-12-27T19:54:25.970Z,7.46
2022-12-27T19:56:53.291Z,7.45
2022-12-27T19:59:24.181Z,7.48
2022-12-27T20:01:52.807Z,7.48
2022-12-27T20:04:20.049Z,7.49
2022-12-27T20:06:48.923Z,7.50
2022-12-27T20:09:19.147Z,7.52
2022-12-27T20:11:48.272Z,7.50
2022-12-27T20:14:17.676Z,7.52
2022-12-27T20:16:46.959Z,7.51
2022-12-27T20:19:16.655Z,7.50
2022-12-27T20:21:43.961Z,7.53
2022-12-27T20:24:15.116Z,7.53
2022-12-27T20:26:43.214Z,7.58
2022-12-27T20:29:11.334Z,7.56
2022-12-27T20:31:44.741Z,7.57
2022-12-27T20:34:13.048Z,7.60
2022-12-27T20:36:41.657Z,7.59
2022-12-27T20:39:08.579Z,7.57
2022-12-27T20:41:35.587Z,7.59
2022-12-27T20:44:02.710Z,7.57
2022-12-27T20:46:29.663Z,7.60
2022-12-27T20:48:57.110Z,7.61
2022-12-27T20:51:33.664Z,7.60
2022-12-27T20:54:03.096Z,7.59
2022-12-27T20:56:30.479Z,7.58
2022-12-27T20:58:57.736Z,7.58
2022-12-27T21:01:28.177Z,7.62
2022-12-27T21:03:56.859Z,7.58
2022-12-27T21:06:27.479Z,7.59
2022-12-27T21:08:57.789Z,7.60
2022-12-27T21:11:31.660Z,7.61
2022-12-27T21:14:01.459Z,7.57
2022-12-27T21:16:32.309Z,7.62
2022-12-27T21:19:03.576Z,7.57
2022-12-27T21:21:33.181Z,7.64
2022-12-27T21:24:00.414Z,7.63
2022-12-27T21:26:33.782Z,7.62
2022-12-27T21:29:01.766Z,7.59
2022-12-27T21:31:30.190Z,7.59
2022-12-27T21:33:59.546Z,7.65
2022-12-27T21:36:31.676Z,7.66
2022-12-27T21:38:59.098Z,7.60
2022-12-27T21:41:33.309Z,7.67
2022-12-27T21:44:01.007Z,7.68
2022-12-27T21:46:31.978Z,7.73
2022-12-27T21:49:02.173Z,7.72
2022-12-27T21:51:31.677Z,7.74
2022-12-27T21:53:59.251Z,7.74
2022-12-27T21:56:26.634Z,7.77
2022-12-27T21:58:55.998Z,7.78
2022-12-27T22:01:26.289Z,7.78
2022-12-27T22:03:54.816Z,7.80
2022-12-27T22:06:37.816Z,7.76
2022-12-27T22:09:10.113Z,7.84
2022-12-27T22:11:39.576Z,7.88
2022-12-27T22:14:07.055Z,7.89
2022-12-27T22:16:39.389Z,7.87
2022-12-27T22:19:09.195Z,7.86
2022-12-27T22:21:37.896Z,7.92
2022-12-27T22:24:05.883Z,7.90
2022-12-27T22:26:37.472Z,7.89
2022-12-27T22:29:07.947Z,7.91
2022-12-27T22:31:38.245Z,7.96
2022-12-27T22:34:06.206Z,7.96
2022-12-27T22:36:34.385Z,7.97
2022-12-27T22:39:02.019Z,7.96
2022-12-27T22:41:35.676Z,7.90
2022-12-27T22:44:08.751Z,7.97
2022-12-27T22:47:24.624Z,7.99
2022-12-27T22:49:23.366Z,7.96
2022-12-27T22:51:50.140Z,7.96
2022-12-27T22:54:17.099Z,8.01
2022-12-27T22:56:44.205Z,7.99
2022-12-27T22:59:16.520Z,7.96
2022-12-27T23:01:46.053Z,7.93
2022-12-27T23:04:14.134Z,7.98
2022-12-27T23:06:42.169Z,7.96
2022-12-27T23:09:09.868Z,7.97
2022-12-27T23:11:41.011Z,7.98
2022-12-27T23:14:17.023Z,7.89
2022-12-27T23:16:47.459Z,7.84
2022-12-27T23:19:17.772Z,7.82
2022-12-27T23:21:45.015Z,7.81
2022-12-27T23:24:12.679Z,7.81
2022-12-27T23:26:40.682Z,7.78
2022-12-27T23:29:07.675Z,7.77
2022-12-27T23:31:34.819Z,7.70
2022-12-27T23:34:01.825Z,7.66
2022-12-27T23:36:31.522Z,7.59
2022-12-27T23:38:58.483Z,7.54
2022-12-27T23:41:26.502Z,7.49
2022-12-27T23:43:55.791Z,7.46
2022-12-27T23:46:33.324Z,7.41
2022-12-27T23:49:03.599Z,7.41
2022-12-27T23:51:31.787Z,7.43
2022-12-27T23:53:58.771Z,7.33
2022-12-27T23:56:32.331Z,7.35
2022-12-27T23:59:01.592Z,7.40
